Aviation Digital Data Service (ADDS)

Output produced by TAFs form (0202 UTC 27 February 2017)
found at http://www.aviationweather.gov/adds/tafs/
 
KMDT 262349Z 2700/2724 29010KT P6SM FEW050 
     FM270030 29007KT P6SM SKC 
     FM270900 23005KT P6SM BKN110 
     FM271500 21010G17KT P6SM BKN080